sensor_id;sensor_type;location;lat;lon;timestamp;P1;durP1;ratioP1;P2;durP2;ratioP2
14377;SDS011;7272;53.668;9.578;2023-03-11T00:00:36;18.20;;;16.27;;
14377;SDS011;7272;53.668;9.578;2023-03-11T00:03:39;14.83;;;13.37;;
14377;SDS011;7272;53.668;9.578;2023-03-11T00:06:41;18.67;;;16.67;;
14377;SDS011;7272;53.668;9.578;2023-03-11T00:09:43;18.30;;;16.20;;
14377;SDS011;7272;53.668;9.578;2023-03-11T00:12:46;17.50;;;15.37;;
14377;SDS011;7272;53.668;9.578;2023-03-11T00:15:50;17.17;;;15.53;;
14377;SDS011;7272;53.668;9.578;2023-03-11T00:18:54;18.77;;;16.83;;
14377;SDS011;7272;53.668;9.578;2023-03-11T00:21:57;17.80;;;14.67;;
14377;SDS011;7272;53.668;9.578;2023-03-11T00:24:59;15.30;;;13.70;;
14377;SDS011;7272;53.668;9.578;2023-03-11T00:28:01;16.47;;;14.87;;
14377;SDS011;7272;53.668;9.578;2023-03-11T00:31:05;14.63;;;13.13;;
14377;SDS011;7272;53.668;9.578;2023-03-11T00:34:07;16.43;;;14.73;;
14377;SDS011;7272;53.668;9.578;2023-03-11T00:37:09;16.60;;;14.90;;
14377;SDS011;7272;53.668;9.578;2023-03-11T00:40:11;15.97;;;14.33;;
14377;SDS011;7272;53.668;9.578;2023-03-11T00:43:14;15.33;;;13.70;;
14377;SDS011;7272;53.668;9.578;2023-03-11T00:46:18;14.40;;;13.00;;
14377;SDS011;7272;53.668;9.578;2023-03-11T00:49:20;15.43;;;13.93;;
14377;SDS011;7272;53.668;9.578;2023-03-11T00:52:22;16.03;;;14.33;;
14377;SDS011;7272;53.668;9.578;2023-03-11T00:55:24;16.63;;;15.03;;
14377;SDS011;7272;53.668;9.578;2023-03-11T00:58:28;16.10;;;14.50;;
14377;SDS011;7272;53.668;9.578;2023-03-11T01:01:33;15.60;;;14.00;;
14377;SDS011;7272;53.668;9.578;2023-03-11T01:04:35;15.60;;;14.13;;
14377;SDS011;7272;53.668;9.578;2023-03-11T01:07:37;16.80;;;15.10;;
14377;SDS011;7272;53.668;9.578;2023-03-11T01:10:39;16.73;;;15.03;;
14377;SDS011;7272;53.668;9.578;2023-03-11T01:13:41;16.23;;;14.63;;
14377;SDS011;7272;53.668;9.578;2023-03-11T01:16:45;15.63;;;13.93;;
14377;SDS011;7272;53.668;9.578;2023-03-11T01:19:47;14.70;;;13.33;;
14377;SDS011;7272;53.668;9.578;2023-03-11T01:22:49;16.33;;;14.73;;
14377;SDS011;7272;53.668;9.578;2023-03-11T01:25:51;15.13;;;13.53;;
14377;SDS011;7272;53.668;9.578;2023-03-11T01:28:53;17.30;;;15.50;;
14377;SDS011;7272;53.668;9.578;2023-03-11T01:31:56;17.80;;;15.60;;
14377;SDS011;7272;53.668;9.578;2023-03-11T01:34:59;16.87;;;14.77;;
14377;SDS011;7272;53.668;9.578;2023-03-11T01:38:01;18.30;;;16.40;;
14377;SDS011;7272;53.668;9.578;2023-03-11T01:41:03;16.27;;;14.67;;
14377;SDS011;7272;53.668;9.578;2023-03-11T01:44:06;17.40;;;15.60;;
14377;SDS011;7272;53.668;9.578;2023-03-11T01:50:42;18.20;;;16.10;;
14377;SDS011;7272;53.668;9.578;2023-03-11T01:53:50;17.77;;;15.77;;
14377;SDS011;7272;53.668;9.578;2023-03-11T01:56:53;17.40;;;15.60;;
14377;SDS011;7272;53.668;9.578;2023-03-11T01:59:58;13.27;;;12.07;;
14377;SDS011;7272;53.668;9.578;2023-03-11T02:03:15;14.67;;;13.27;;
14377;SDS011;7272;53.668;9.578;2023-03-11T02:06:22;14.17;;;12.67;;
14377;SDS011;7272;53.668;9.578;2023-03-11T02:09:27;13.93;;;12.60;;
14377;SDS011;7272;53.668;9.578;2023-03-11T02:12:29;14.43;;;13.13;;
14377;SDS011;7272;53.668;9.578;2023-03-11T02:15:34;12.77;;;11.57;;
14377;SDS011;7272;53.668;9.578;2023-03-11T02:18:37;14.20;;;12.90;;
14377;SDS011;7272;53.668;9.578;2023-03-11T02:21:40;14.33;;;12.83;;
14377;SDS011;7272;53.668;9.578;2023-03-11T02:24:42;13.73;;;12.13;;
14377;SDS011;7272;53.668;9.578;2023-03-11T02:27:48;14.63;;;12.60;;
14377;SDS011;7272;53.668;9.578;2023-03-11T02:30:56;14.87;;;12.63;;
14377;SDS011;7272;53.668;9.578;2023-03-11T02:33:58;11.73;;;10.73;;
14377;SDS011;7272;53.668;9.578;2023-03-11T02:37:03;11.10;;;10.03;;
14377;SDS011;7272;53.668;9.578;2023-03-11T02:40:19;11.47;;;10.47;;
14377;SDS011;7272;53.668;9.578;2023-03-11T02:43:37;12.03;;;10.93;;
14377;SDS011;7272;53.668;9.578;2023-03-11T02:46:44;11.10;;;10.10;;
14377;SDS011;7272;53.668;9.578;2023-03-11T02:49:46;12.70;;;11.50;;
14377;SDS011;7272;53.668;9.578;2023-03-11T02:52:49;11.57;;;10.47;;
14377;SDS011;7272;53.668;9.578;2023-03-11T02:55:52;11.90;;;10.77;;
14377;SDS011;7272;53.668;9.578;2023-03-11T02:58:55;11.50;;;10.50;;
14377;SDS011;7272;53.668;9.578;2023-03-11T03:01:57;9.97;;;9.07;;
14377;SDS011;7272;53.668;9.578;2023-03-11T03:04:59;11.33;;;10.33;;
14377;SDS011;7272;53.668;9.578;2023-03-11T03:08:01;11.10;;;10.10;;
14377;SDS011;7272;53.668;9.578;2023-03-11T03:11:03;9.63;;;8.83;;
14377;SDS011;7272;53.668;9.578;2023-03-11T03:14:07;10.87;;;9.93;;
14377;SDS011;7272;53.668;9.578;2023-03-11T03:17:09;11.47;;;10.27;;
14377;SDS011;7272;53.668;9.578;2023-03-11T03:20:11;11.50;;;10.50;;
14377;SDS011;7272;53.668;9.578;2023-03-11T03:23:18;10.77;;;9.77;;
14377;SDS011;7272;53.668;9.578;2023-03-11T03:26:20;10.77;;;9.67;;
14377;SDS011;7272;53.668;9.578;2023-03-11T03:29:24;11.90;;;10.80;;
14377;SDS011;7272;53.668;9.578;2023-03-11T03:32:27;12.20;;;10.07;;
14377;SDS011;7272;53.668;9.578;2023-03-11T03:35:30;10.93;;;9.87;;
14377;SDS011;7272;53.668;9.578;2023-03-11T03:38:40;10.00;;;9.10;;
14377;SDS011;7272;53.668;9.578;2023-03-11T03:41:42;10.73;;;9.77;;
14377;SDS011;7272;53.668;9.578;2023-03-11T03:44:45;9.67;;;8.73;;
14377;SDS011;7272;53.668;9.578;2023-03-11T03:47:48;10.37;;;9.37;;
14377;SDS011;7272;53.668;9.578;2023-03-11T03:50:51;10.03;;;9.03;;
14377;SDS011;7272;53.668;9.578;2023-03-11T03:53:53;9.93;;;8.93;;
14377;SDS011;7272;53.668;9.578;2023-03-11T03:56:57;11.13;;;10.03;;
14377;SDS011;7272;53.668;9.578;2023-03-11T04:00:01;11.00;;;9.90;;
14377;SDS011;7272;53.668;9.578;2023-03-11T04:03:14;11.07;;;9.97;;
14377;SDS011;7272;53.668;9.578;2023-03-11T04:06:23;11.73;;;10.53;;
14377;SDS011;7272;53.668;9.578;2023-03-11T04:09:31;10.50;;;9.50;;
14377;SDS011;7272;53.668;9.578;2023-03-11T04:12:34;11.13;;;9.83;;
14377;SDS011;7272;53.668;9.578;2023-03-11T04:15:37;10.63;;;9.70;;
14377;SDS011;7272;53.668;9.578;2023-03-11T04:18:42;10.63;;;9.63;;
14377;SDS011;7272;53.668;9.578;2023-03-11T04:21:44;9.43;;;8.60;;
14377;SDS011;7272;53.668;9.578;2023-03-11T04:24:46;9.57;;;8.63;;
14377;SDS011;7272;53.668;9.578;2023-03-11T04:27:48;8.43;;;7.73;;
14377;SDS011;7272;53.668;9.578;2023-03-11T04:30:53;8.17;;;7.37;;
14377;SDS011;7272;53.668;9.578;2023-03-11T04:33:55;10.20;;;7.87;;
14377;SDS011;7272;53.668;9.578;2023-03-11T04:36:57;8.47;;;7.67;;
14377;SDS011;7272;53.668;9.578;2023-03-11T04:40:05;9.70;;;8.80;;
14377;SDS011;7272;53.668;9.578;2023-03-11T04:43:08;8.97;;;8.07;;
14377;SDS011;7272;53.668;9.578;2023-03-11T04:46:12;8.83;;;8.03;;
14377;SDS011;7272;53.668;9.578;2023-03-11T04:49:15;9.13;;;8.27;;
14377;SDS011;7272;53.668;9.578;2023-03-11T04:52:17;9.07;;;8.27;;
14377;SDS011;7272;53.668;9.578;2023-03-11T04:55:20;9.57;;;8.67;;
14377;SDS011;7272;53.668;9.578;2023-03-11T04:58:22;10.47;;;9.57;;
14377;SDS011;7272;53.668;9.578;2023-03-11T05:01:25;10.00;;;9.10;;
14377;SDS011;7272;53.668;9.578;2023-03-11T05:04:28;10.90;;;9.80;;
14377;SDS011;7272;53.668;9.578;2023-03-11T05:07:30;11.10;;;10.00;;
14377;SDS011;7272;53.668;9.578;2023-03-11T05:10:33;11.30;;;10.30;;
14377;SDS011;7272;53.668;9.578;2023-03-11T05:13:39;10.77;;;9.67;;
14377;SDS011;7272;53.668;9.578;2023-03-11T05:16:42;11.10;;;9.83;;
14377;SDS011;7272;53.668;9.578;2023-03-11T05:19:44;11.67;;;10.57;;
14377;SDS011;7272;53.668;9.578;2023-03-11T05:22:53;12.27;;;10.97;;
14377;SDS011;7272;53.668;9.578;2023-03-11T05:25:55;10.73;;;9.70;;
14377;SDS011;7272;53.668;9.578;2023-03-11T05:28:58;11.47;;;9.03;;
14377;SDS011;7272;53.668;9.578;2023-03-11T05:32:01;9.67;;;8.70;;
14377;SDS011;7272;53.668;9.578;2023-03-11T05:35:03;9.00;;;8.20;;
14377;SDS011;7272;53.668;9.578;2023-03-11T05:38:06;10.10;;;9.17;;
14377;SDS011;7272;53.668;9.578;2023-03-11T05:41:09;9.43;;;8.43;;
14377;SDS011;7272;53.668;9.578;2023-03-11T05:44:12;9.33;;;8.37;;
14377;SDS011;7272;53.668;9.578;2023-03-11T05:47:16;9.90;;;9.00;;
14377;SDS011;7272;53.668;9.578;2023-03-11T05:50:20;9.40;;;8.60;;
14377;SDS011;7272;53.668;9.578;2023-03-11T05:53:23;9.00;;;8.10;;
14377;SDS011;7272;53.668;9.578;2023-03-11T05:56:26;9.23;;;8.43;;
14377;SDS011;7272;53.668;9.578;2023-03-11T05:59:29;9.73;;;8.83;;
14377;SDS011;7272;53.668;9.578;2023-03-11T06:02:37;9.83;;;8.93;;
14377;SDS011;7272;53.668;9.578;2023-03-11T06:05:43;9.30;;;8.50;;
14377;SDS011;7272;53.668;9.578;2023-03-11T06:08:45;8.90;;;8.10;;
14377;SDS011;7272;53.668;9.578;2023-03-11T06:11:50;9.93;;;9.03;;
14377;SDS011;7272;53.668;9.578;2023-03-11T06:14:55;9.97;;;8.93;;
14377;SDS011;7272;53.668;9.578;2023-03-11T06:17:58;9.40;;;8.60;;
14377;SDS011;7272;53.668;9.578;2023-03-11T06:21:01;9.97;;;9.07;;
14377;SDS011;7272;53.668;9.578;2023-03-11T06:24:08;9.20;;;8.30;;
14377;SDS011;7272;53.668;9.578;2023-03-11T06:27:11;10.10;;;9.10;;
14377;SDS011;7272;53.668;9.578;2023-03-11T06:30:14;9.63;;;8.63;;
14377;SDS011;7272;53.668;9.578;2023-03-11T06:33:28;9.33;;;8.43;;
14377;SDS011;7272;53.668;9.578;2023-03-11T06:36:30;9.73;;;8.87;;
14377;SDS011;7272;53.668;9.578;2023-03-11T06:39:36;8.87;;;8.07;;
14377;SDS011;7272;53.668;9.578;2023-03-11T06:42:38;9.93;;;8.73;;
14377;SDS011;7272;53.668;9.578;2023-03-11T06:45:43;9.20;;;8.30;;
14377;SDS011;7272;53.668;9.578;2023-03-11T06:48:46;8.47;;;7.67;;
14377;SDS011;7272;53.668;9.578;2023-03-11T06:51:52;8.87;;;8.00;;
14377;SDS011;7272;53.668;9.578;2023-03-11T06:54:54;8.00;;;7.27;;
14377;SDS011;7272;53.668;9.578;2023-03-11T06:57:56;9.30;;;8.40;;
14377;SDS011;7272;53.668;9.578;2023-03-11T07:00:59;8.37;;;7.67;;
14377;SDS011;7272;53.668;9.578;2023-03-11T07:04:05;7.37;;;6.77;;
14377;SDS011;7272;53.668;9.578;2023-03-11T07:07:12;7.00;;;6.30;;
14377;SDS011;7272;53.668;9.578;2023-03-11T07:10:14;6.60;;;6.00;;
14377;SDS011;7272;53.668;9.578;2023-03-11T07:13:17;6.47;;;5.87;;
14377;SDS011;7272;53.668;9.578;2023-03-11T07:16:19;6.77;;;6.17;;
14377;SDS011;7272;53.668;9.578;2023-03-11T07:19:26;5.60;;;5.10;;
14377;SDS011;7272;53.668;9.578;2023-03-11T07:22:29;5.30;;;4.80;;
14377;SDS011;7272;53.668;9.578;2023-03-11T07:25:31;5.20;;;4.73;;
14377;SDS011;7272;53.668;9.578;2023-03-11T07:28:33;6.43;;;5.03;;
14377;SDS011;7272;53.668;9.578;2023-03-11T07:31:35;5.60;;;5.10;;
14377;SDS011;7272;53.668;9.578;2023-03-11T07:34:39;6.77;;;5.10;;
14377;SDS011;7272;53.668;9.578;2023-03-11T07:37:41;5.30;;;4.83;;
14377;SDS011;7272;53.668;9.578;2023-03-11T07:40:43;5.57;;;5.17;;
14377;SDS011;7272;53.668;9.578;2023-03-11T07:43:45;5.00;;;4.60;;
14377;SDS011;7272;53.668;9.578;2023-03-11T07:46:49;5.00;;;4.53;;
14377;SDS011;7272;53.668;9.578;2023-03-11T07:49:53;4.47;;;4.13;;
14377;SDS011;7272;53.668;9.578;2023-03-11T07:52:55;4.80;;;4.40;;
14377;SDS011;7272;53.668;9.578;2023-03-11T07:55:57;5.07;;;4.67;;
14377;SDS011;7272;53.668;9.578;2023-03-11T07:59:02;4.77;;;4.37;;
14377;SDS011;7272;53.668;9.578;2023-03-11T08:02:05;5.60;;;4.30;;
14377;SDS011;7272;53.668;9.578;2023-03-11T08:05:11;4.50;;;4.10;;
14377;SDS011;7272;53.668;9.578;2023-03-11T08:08:13;4.70;;;4.30;;
14377;SDS011;7272;53.668;9.578;2023-03-11T08:11:15;4.30;;;3.90;;
14377;SDS011;7272;53.668;9.578;2023-03-11T08:14:17;3.80;;;3.47;;
14377;SDS011;7272;53.668;9.578;2023-03-11T08:17:20;5.00;;;4.60;;
14377;SDS011;7272;53.668;9.578;2023-03-11T08:20:23;5.43;;;5.03;;
14377;SDS011;7272;53.668;9.578;2023-03-11T08:23:25;5.43;;;4.93;;
14377;SDS011;7272;53.668;9.578;2023-03-11T08:26:27;6.63;;;4.90;;
14377;SDS011;7272;53.668;9.578;2023-03-11T08:29:30;5.30;;;4.80;;
14377;SDS011;7272;53.668;9.578;2023-03-11T08:32:32;5.07;;;4.57;;
14377;SDS011;7272;53.668;9.578;2023-03-11T08:35:35;5.33;;;4.83;;
14377;SDS011;7272;53.668;9.578;2023-03-11T08:38:37;4.77;;;4.30;;
14377;SDS011;7272;53.668;9.578;2023-03-11T08:41:39;4.40;;;4.00;;
14377;SDS011;7272;53.668;9.578;2023-03-11T08:44:41;4.40;;;3.67;;
14377;SDS011;7272;53.668;9.578;2023-03-11T08:47:44;3.90;;;3.47;;
14377;SDS011;7272;53.668;9.578;2023-03-11T08:50:47;3.80;;;3.40;;
14377;SDS011;7272;53.668;9.578;2023-03-11T08:53:49;3.70;;;3.40;;
14377;SDS011;7272;53.668;9.578;2023-03-11T08:56:51;4.37;;;3.60;;
14377;SDS011;7272;53.668;9.578;2023-03-11T08:59:53;4.20;;;3.80;;
14377;SDS011;7272;53.668;9.578;2023-03-11T09:02:57;3.70;;;2.90;;
14377;SDS011;7272;53.668;9.578;2023-03-11T09:06:01;3.27;;;3.07;;
14377;SDS011;7272;53.668;9.578;2023-03-11T09:09:04;3.23;;;3.00;;
14377;SDS011;7272;53.668;9.578;2023-03-11T09:12:07;4.33;;;2.50;;
14377;SDS011;7272;53.668;9.578;2023-03-11T09:15:13;3.37;;;2.90;;
14377;SDS011;7272;53.668;9.578;2023-03-11T09:18:15;4.07;;;3.23;;
14377;SDS011;7272;53.668;9.578;2023-03-11T09:21:20;3.47;;;3.17;;
14377;SDS011;7272;53.668;9.578;2023-03-11T09:24:22;3.47;;;3.20;;
14377;SDS011;7272;53.668;9.578;2023-03-11T09:27:24;6.53;;;3.80;;
14377;SDS011;7272;53.668;9.578;2023-03-11T09:30:26;4.20;;;3.80;;
14377;SDS011;7272;53.668;9.578;2023-03-11T09:33:29;3.50;;;3.30;;
14377;SDS011;7272;53.668;9.578;2023-03-11T09:36:32;4.67;;;3.10;;
14377;SDS011;7272;53.668;9.578;2023-03-11T09:39:34;5.50;;;4.23;;
14377;SDS011;7272;53.668;9.578;2023-03-11T09:42:37;4.47;;;4.07;;
14377;SDS011;7272;53.668;9.578;2023-03-11T09:45:44;4.70;;;4.17;;
14377;SDS011;7272;53.668;9.578;2023-03-11T09:48:53;4.57;;;4.17;;
14377;SDS011;7272;53.668;9.578;2023-03-11T09:52:02;3.97;;;3.57;;
14377;SDS011;7272;53.668;9.578;2023-03-11T09:55:16;6.17;;;3.87;;
14377;SDS011;7272;53.668;9.578;2023-03-11T09:58:30;4.03;;;3.43;;
14377;SDS011;7272;53.668;9.578;2023-03-11T10:01:39;3.60;;;3.30;;
14377;SDS011;7272;53.668;9.578;2023-03-11T10:04:44;5.43;;;3.17;;
14377;SDS011;7272;53.668;9.578;2023-03-11T10:07:56;3.17;;;2.70;;
14377;SDS011;7272;53.668;9.578;2023-03-11T10:11:05;5.53;;;3.70;;
14377;SDS011;7272;53.668;9.578;2023-03-11T10:14:24;5.80;;;3.50;;
14377;SDS011;7272;53.668;9.578;2023-03-11T10:17:39;3.60;;;3.30;;
14377;SDS011;7272;53.668;9.578;2023-03-11T10:20:58;3.33;;;3.03;;
14377;SDS011;7272;53.668;9.578;2023-03-11T10:24:09;3.30;;;3.00;;
14377;SDS011;7272;53.668;9.578;2023-03-11T10:27:22;3.43;;;3.13;;
14377;SDS011;7272;53.668;9.578;2023-03-11T10:30:29;2.80;;;2.60;;
14377;SDS011;7272;53.668;9.578;2023-03-11T10:33:35;2.90;;;2.70;;
14377;SDS011;7272;53.668;9.578;2023-03-11T10:36:45;2.50;;;2.30;;
14377;SDS011;7272;53.668;9.578;2023-03-11T10:39:55;5.23;;;2.70;;
14377;SDS011;7272;53.668;9.578;2023-03-11T10:43:08;3.63;;;2.73;;
14377;SDS011;7272;53.668;9.578;2023-03-11T10:46:17;3.33;;;2.60;;
14377;SDS011;7272;53.668;9.578;2023-03-11T10:49:21;5.00;;;2.50;;
14377;SDS011;7272;53.668;9.578;2023-03-11T10:52:23;2.93;;;2.73;;
14377;SDS011;7272;53.668;9.578;2023-03-11T10:55:26;2.43;;;2.23;;
14377;SDS011;7272;53.668;9.578;2023-03-11T10:58:28;2.50;;;2.30;;
14377;SDS011;7272;53.668;9.578;2023-03-11T11:01:31;4.27;;;2.40;;
14377;SDS011;7272;53.668;9.578;2023-03-11T11:04:35;2.63;;;2.10;;
14377;SDS011;7272;53.668;9.578;2023-03-11T11:07:38;2.87;;;1.90;;
14377;SDS011;7272;53.668;9.578;2023-03-11T11:10:49;2.30;;;1.80;;
14377;SDS011;7272;53.668;9.578;2023-03-11T11:13:56;2.47;;;1.90;;
14377;SDS011;7272;53.668;9.578;2023-03-11T11:16:59;2.23;;;1.60;;
14377;SDS011;7272;53.668;9.578;2023-03-11T11:20:01;2.57;;;1.60;;
14377;SDS011;7272;53.668;9.578;2023-03-11T11:23:23;4.03;;;1.80;;
14377;SDS011;7272;53.668;9.578;2023-03-11T11:26:28;2.93;;;1.90;;
14377;SDS011;7272;53.668;9.578;2023-03-11T11:29:30;3.80;;;1.60;;
14377;SDS011;7272;53.668;9.578;2023-03-11T11:32:34;3.17;;;1.80;;
14377;SDS011;7272;53.668;9.578;2023-03-11T11:35:36;2.07;;;1.60;;
14377;SDS011;7272;53.668;9.578;2023-03-11T11:38:50;3.40;;;1.67;;
14377;SDS011;7272;53.668;9.578;2023-03-11T11:41:55;2.70;;;1.47;;
14377;SDS011;7272;53.668;9.578;2023-03-11T11:44:59;2.43;;;1.57;;
14377;SDS011;7272;53.668;9.578;2023-03-11T11:48:09;2.40;;;1.60;;
14377;SDS011;7272;53.668;9.578;2023-03-11T11:51:17;5.13;;;1.73;;
14377;SDS011;7272;53.668;9.578;2023-03-11T11:54:22;1.83;;;1.30;;
14377;SDS011;7272;53.668;9.578;2023-03-11T11:57:29;1.80;;;1.23;;
14377;SDS011;7272;53.668;9.578;2023-03-11T12:00:34;14.37;;;1.53;;
14377;SDS011;7272;53.668;9.578;2023-03-11T12:03:55;2.03;;;1.20;;
14377;SDS011;7272;53.668;9.578;2023-03-11T12:07:33;3.10;;;1.20;;
14377;SDS011;7272;53.668;9.578;2023-03-11T12:10:45;2.83;;;1.40;;
14377;SDS011;7272;53.668;9.578;2023-03-11T12:13:58;4.00;;;1.50;;
14377;SDS011;7272;53.668;9.578;2023-03-11T12:17:09;3.77;;;1.50;;
14377;SDS011;7272;53.668;9.578;2023-03-11T12:20:14;2.97;;;1.37;;
14377;SDS011;7272;53.668;9.578;2023-03-11T12:23:25;2.80;;;1.30;;
14377;SDS011;7272;53.668;9.578;2023-03-11T12:26:38;3.10;;;1.47;;
14377;SDS011;7272;53.668;9.578;2023-03-11T12:29:46;2.43;;;1.30;;
14377;SDS011;7272;53.668;9.578;2023-03-11T12:32:55;2.40;;;1.13;;
14377;SDS011;7272;53.668;9.578;2023-03-11T12:36:00;1.67;;;1.20;;
14377;SDS011;7272;53.668;9.578;2023-03-11T12:39:04;1.40;;;1.00;;
14377;SDS011;7272;53.668;9.578;2023-03-11T12:42:18;1.97;;;1.10;;
14377;SDS011;7272;53.668;9.578;2023-03-11T12:45:47;3.60;;;1.43;;
14377;SDS011;7272;53.668;9.578;2023-03-11T12:48:57;2.57;;;1.20;;
14377;SDS011;7272;53.668;9.578;2023-03-11T12:52:19;1.40;;;0.90;;
14377;SDS011;7272;53.668;9.578;2023-03-11T12:55:31;2.57;;;1.07;;
14377;SDS011;7272;53.668;9.578;2023-03-11T12:58:48;1.43;;;0.80;;
14377;SDS011;7272;53.668;9.578;2023-03-11T13:02:03;1.83;;;0.90;;
14377;SDS011;7272;53.668;9.578;2023-03-11T13:05:25;1.87;;;1.13;;
14377;SDS011;7272;53.668;9.578;2023-03-11T13:08:32;3.70;;;1.40;;
14377;SDS011;7272;53.668;9.578;2023-03-11T13:11:43;2.20;;;1.00;;
14377;SDS011;7272;53.668;9.578;2023-03-11T13:14:47;2.77;;;1.03;;
14377;SDS011;7272;53.668;9.578;2023-03-11T13:17:56;2.20;;;1.00;;
14377;SDS011;7272;53.668;9.578;2023-03-11T13:20:59;1.73;;;1.00;;
14377;SDS011;7272;53.668;9.578;2023-03-11T13:27:41;1.60;;;1.07;;
14377;SDS011;7272;53.668;9.578;2023-03-11T13:30:50;4.80;;;1.10;;
14377;SDS011;7272;53.668;9.578;2023-03-11T13:33:58;0.97;;;0.90;;
14377;SDS011;7272;53.668;9.578;2023-03-11T13:37:16;1.80;;;0.90;;
14377;SDS011;7272;53.668;9.578;2023-03-11T13:40:27;3.80;;;1.03;;
14377;SDS011;7272;53.668;9.578;2023-03-11T13:43:33;1.10;;;0.90;;
14377;SDS011;7272;53.668;9.578;2023-03-11T13:46:43;3.13;;;1.00;;
14377;SDS011;7272;53.668;9.578;2023-03-11T13:49:51;2.10;;;1.03;;
14377;SDS011;7272;53.668;9.578;2023-03-11T13:52:59;5.13;;;1.30;;
14377;SDS011;7272;53.668;9.578;2023-03-11T13:56:13;1.90;;;1.00;;
14377;SDS011;7272;53.668;9.578;2023-03-11T13:59:21;0.90;;;0.90;;
14377;SDS011;7272;53.668;9.578;2023-03-11T14:02:25;1.37;;;0.90;;
14377;SDS011;7272;53.668;9.578;2023-03-11T14:05:29;1.20;;;1.00;;
14377;SDS011;7272;53.668;9.578;2023-03-11T14:08:33;2.13;;;1.00;;
14377;SDS011;7272;53.668;9.578;2023-03-11T14:11:36;2.53;;;1.30;;
14377;SDS011;7272;53.668;9.578;2023-03-11T14:14:43;3.13;;;1.03;;
14377;SDS011;7272;53.668;9.578;2023-03-11T14:17:51;1.53;;;1.20;;
14377;SDS011;7272;53.668;9.578;2023-03-11T14:20:56;2.00;;;1.30;;
14377;SDS011;7272;53.668;9.578;2023-03-11T14:23:58;1.83;;;1.20;;
14377;SDS011;7272;53.668;9.578;2023-03-11T14:27:05;2.90;;;1.10;;
14377;SDS011;7272;53.668;9.578;2023-03-11T14:30:16;1.33;;;1.23;;
14377;SDS011;7272;53.668;9.578;2023-03-11T14:33:21;3.37;;;1.50;;
14377;SDS011;7272;53.668;9.578;2023-03-11T14:36:24;2.20;;;1.50;;
14377;SDS011;7272;53.668;9.578;2023-03-11T14:39:27;3.13;;;1.67;;
14377;SDS011;7272;53.668;9.578;2023-03-11T14:42:31;8.80;;;1.83;;
14377;SDS011;7272;53.668;9.578;2023-03-11T14:45:37;10.03;;;1.70;;
14377;SDS011;7272;53.668;9.578;2023-03-11T14:48:40;2.13;;;1.33;;
14377;SDS011;7272;53.668;9.578;2023-03-11T14:51:54;3.40;;;1.60;;
14377;SDS011;7272;53.668;9.578;2023-03-11T14:55:00;5.00;;;1.30;;
14377;SDS011;7272;53.668;9.578;2023-03-11T14:58:03;5.03;;;1.60;;
14377;SDS011;7272;53.668;9.578;2023-03-11T15:01:11;2.67;;;1.33;;
14377;SDS011;7272;53.668;9.578;2023-03-11T15:04:18;2.37;;;1.23;;
14377;SDS011;7272;53.668;9.578;2023-03-11T15:07:27;2.70;;;1.50;;
14377;SDS011;7272;53.668;9.578;2023-03-11T15:10:30;4.17;;;1.20;;
14377;SDS011;7272;53.668;9.578;2023-03-11T15:13:32;8.83;;;1.67;;
14377;SDS011;7272;53.668;9.578;2023-03-11T15:16:35;2.53;;;1.50;;
14377;SDS011;7272;53.668;9.578;2023-03-11T15:19:38;1.30;;;1.20;;
14377;SDS011;7272;53.668;9.578;2023-03-11T15:22:41;1.43;;;1.20;;
14377;SDS011;7272;53.668;9.578;2023-03-11T15:25:46;2.60;;;1.50;;
14377;SDS011;7272;53.668;9.578;2023-03-11T15:28:57;1.47;;;1.37;;
14377;SDS011;7272;53.668;9.578;2023-03-11T15:32:07;3.37;;;1.57;;
14377;SDS011;7272;53.668;9.578;2023-03-11T15:35:25;3.43;;;1.70;;
14377;SDS011;7272;53.668;9.578;2023-03-11T15:38:29;2.37;;;1.50;;
14377;SDS011;7272;53.668;9.578;2023-03-11T15:41:31;3.60;;;1.60;;
14377;SDS011;7272;53.668;9.578;2023-03-11T15:44:34;2.50;;;1.70;;
14377;SDS011;7272;53.668;9.578;2023-03-11T15:47:39;6.07;;;1.67;;
14377;SDS011;7272;53.668;9.578;2023-03-11T15:50:45;3.63;;;1.90;;
14377;SDS011;7272;53.668;9.578;2023-03-11T15:53:50;3.97;;;1.80;;
14377;SDS011;7272;53.668;9.578;2023-03-11T15:56:52;1.87;;;1.60;;
14377;SDS011;7272;53.668;9.578;2023-03-11T15:59:55;5.27;;;2.00;;
14377;SDS011;7272;53.668;9.578;2023-03-11T16:03:00;3.40;;;1.93;;
14377;SDS011;7272;53.668;9.578;2023-03-11T16:06:02;4.03;;;1.70;;
14377;SDS011;7272;53.668;9.578;2023-03-11T16:09:05;2.63;;;2.00;;
14377;SDS011;7272;53.668;9.578;2023-03-11T16:12:12;4.20;;;2.07;;
14377;SDS011;7272;53.668;9.578;2023-03-11T16:15:20;2.33;;;2.10;;
14377;SDS011;7272;53.668;9.578;2023-03-11T16:18:27;2.30;;;2.10;;
14377;SDS011;7272;53.668;9.578;2023-03-11T16:21:30;4.30;;;2.07;;
14377;SDS011;7272;53.668;9.578;2023-03-11T16:24:36;2.67;;;2.43;;
14377;SDS011;7272;53.668;9.578;2023-03-11T16:27:38;2.83;;;2.00;;
14377;SDS011;7272;53.668;9.578;2023-03-11T16:30:40;2.77;;;1.97;;
14377;SDS011;7272;53.668;9.578;2023-03-11T16:33:43;2.70;;;1.90;;
14377;SDS011;7272;53.668;9.578;2023-03-11T16:36:44;2.97;;;1.97;;
14377;SDS011;7272;53.668;9.578;2023-03-11T16:39:48;2.40;;;2.20;;
14377;SDS011;7272;53.668;9.578;2023-03-11T16:42:50;3.60;;;1.97;;
14377;SDS011;7272;53.668;9.578;2023-03-11T16:45:55;2.50;;;2.00;;
14377;SDS011;7272;53.668;9.578;2023-03-11T16:48:57;2.50;;;1.90;;
14377;SDS011;7272;53.668;9.578;2023-03-11T16:51:59;5.77;;;2.30;;
14377;SDS011;7272;53.668;9.578;2023-03-11T16:55:02;2.97;;;2.00;;
14377;SDS011;7272;53.668;9.578;2023-03-11T16:58:05;3.17;;;2.37;;
14377;SDS011;7272;53.668;9.578;2023-03-11T17:01:10;3.23;;;2.73;;
14377;SDS011;7272;53.668;9.578;2023-03-11T17:04:12;6.30;;;3.00;;
14377;SDS011;7272;53.668;9.578;2023-03-11T17:07:13;3.00;;;2.10;;
14377;SDS011;7272;53.668;9.578;2023-03-11T17:10:17;2.80;;;2.50;;
14377;SDS011;7272;53.668;9.578;2023-03-11T17:13:19;4.87;;;3.67;;
14377;SDS011;7272;53.668;9.578;2023-03-11T17:16:21;3.07;;;2.30;;
14377;SDS011;7272;53.668;9.578;2023-03-11T17:19:23;4.67;;;3.57;;
14377;SDS011;7272;53.668;9.578;2023-03-11T17:22:25;2.73;;;2.13;;
14377;SDS011;7272;53.668;9.578;2023-03-11T17:25:29;4.40;;;2.13;;
14377;SDS011;7272;53.668;9.578;2023-03-11T17:28:32;2.50;;;2.30;;
14377;SDS011;7272;53.668;9.578;2023-03-11T17:31:34;3.17;;;2.47;;
14377;SDS011;7272;53.668;9.578;2023-03-11T17:34:36;2.37;;;2.17;;
14377;SDS011;7272;53.668;9.578;2023-03-11T17:37:38;3.17;;;2.00;;
14377;SDS011;7272;53.668;9.578;2023-03-11T17:40:41;2.60;;;2.40;;
14377;SDS011;7272;53.668;9.578;2023-03-11T17:43:44;2.30;;;1.83;;
14377;SDS011;7272;53.668;9.578;2023-03-11T17:46:46;2.90;;;1.93;;
14377;SDS011;7272;53.668;9.578;2023-03-11T17:49:48;2.23;;;2.03;;
14377;SDS011;7272;53.668;9.578;2023-03-11T17:52:50;5.43;;;2.50;;
14377;SDS011;7272;53.668;9.578;2023-03-11T17:55:54;3.10;;;2.10;;
14377;SDS011;7272;53.668;9.578;2023-03-11T17:58:55;3.97;;;2.17;;
14377;SDS011;7272;53.668;9.578;2023-03-11T18:01:58;3.00;;;2.40;;
14377;SDS011;7272;53.668;9.578;2023-03-11T18:05:00;2.60;;;1.97;;
14377;SDS011;7272;53.668;9.578;2023-03-11T18:08:02;2.10;;;1.90;;
14377;SDS011;7272;53.668;9.578;2023-03-11T18:11:06;4.70;;;2.80;;
14377;SDS011;7272;53.668;9.578;2023-03-11T18:14:10;2.17;;;1.97;;
14377;SDS011;7272;53.668;9.578;2023-03-11T18:17:12;2.93;;;2.07;;
14377;SDS011;7272;53.668;9.578;2023-03-11T18:20:14;3.67;;;2.00;;
14377;SDS011;7272;53.668;9.578;2023-03-11T18:23:16;2.23;;;2.03;;
14377;SDS011;7272;53.668;9.578;2023-03-11T18:26:19;3.23;;;2.47;;
14377;SDS011;7272;53.668;9.578;2023-03-11T18:29:21;4.90;;;4.50;;
14377;SDS011;7272;53.668;9.578;2023-03-11T18:32:23;2.80;;;2.60;;
14377;SDS011;7272;53.668;9.578;2023-03-11T18:35:25;4.43;;;3.00;;
14377;SDS011;7272;53.668;9.578;2023-03-11T18:38:27;2.73;;;2.50;;
14377;SDS011;7272;53.668;9.578;2023-03-11T18:41:31;6.30;;;3.37;;
14377;SDS011;7272;53.668;9.578;2023-03-11T18:44:34;3.03;;;2.70;;
14377;SDS011;7272;53.668;9.578;2023-03-11T18:47:36;4.77;;;3.37;;
14377;SDS011;7272;53.668;9.578;2023-03-11T18:50:38;4.80;;;4.30;;